sensor_id;sensor_type;location;lat;lon;timestamp;temperature;humidity
34829;DHT22;21042;47.620;12.188;2023-12-29T00:02:16;3.70;99.90
34829;DHT22;21042;47.620;12.188;2023-12-29T00:04:43;3.80;99.90
34829;DHT22;21042;47.620;12.188;2023-12-29T00:07:10;3.90;99.90
34829;DHT22;21042;47.620;12.188;2023-12-29T00:09:37;3.90;99.90
34829;DHT22;21042;47.620;12.188;2023-12-29T00:12:10;3.80;99.90
34829;DHT22;21042;47.620;12.188;2023-12-29T00:14:39;3.70;99.90
34829;DHT22;21042;47.620;12.188;2023-12-29T00:17:06;3.70;99.90
34829;DHT22;21042;47.620;12.188;2023-12-29T00:19:32;3.60;99.90
34829;DHT22;21042;47.620;12.188;2023-12-29T00:21:59;3.70;99.90
34829;DHT22;21042;47.620;12.188;2023-12-29T00:24:30;3.70;99.90
34829;DHT22;21042;47.620;12.188;2023-12-29T00:26:58;3.70;99.90
34829;DHT22;21042;47.620;12.188;2023-12-29T00:29:26;3.70;99.90
34829;DHT22;21042;47.620;12.188;2023-12-29T00:31:54;3.70;99.90
34829;DHT22;21042;47.620;12.188;2023-12-29T00:34:21;3.70;99.90
34829;DHT22;21042;47.620;12.188;2023-12-29T00:36:48;3.70;99.90
34829;DHT22;21042;47.620;12.188;2023-12-29T00:39:15;3.70;99.90
34829;DHT22;21042;47.620;12.188;2023-12-29T00:41:42;3.70;99.90
34829;DHT22;21042;47.620;12.188;2023-12-29T00:44:10;3.70;99.90
34829;DHT22;21042;47.620;12.188;2023-12-29T00:46:38;3.80;99.90
34829;DHT22;21042;47.620;12.188;2023-12-29T00:49:04;3.80;99.90
34829;DHT22;21042;47.620;12.188;2023-12-29T00:51:32;3.70;99.90
34829;DHT22;21042;47.620;12.188;2023-12-29T00:53:59;3.70;99.90
34829;DHT22;21042;47.620;12.188;2023-12-29T00:56:26;3.70;99.90
34829;DHT22;21042;47.620;12.188;2023-12-29T00:58:52;3.60;99.90
34829;DHT22;21042;47.620;12.188;2023-12-29T01:01:19;3.50;99.90
34829;DHT22;21042;47.620;12.188;2023-12-29T01:03:46;3.40;99.90
34829;DHT22;21042;47.620;12.188;2023-12-29T01:06:13;3.40;99.90
34829;DHT22;21042;47.620;12.188;2023-12-29T01:08:40;3.30;99.90
34829;DHT22;21042;47.620;12.188;2023-12-29T01:11:07;3.30;99.90
34829;DHT22;21042;47.620;12.188;2023-12-29T01:13:34;3.30;99.90
34829;DHT22;21042;47.620;12.188;2023-12-29T01:16:00;3.20;99.90
34829;DHT22;21042;47.620;12.188;2023-12-29T01:18:28;3.20;99.90
34829;DHT22;21042;47.620;12.188;2023-12-29T01:20:55;3.20;99.90
34829;DHT22;21042;47.620;12.188;2023-12-29T01:23:22;3.10;99.90
34829;DHT22;21042;47.620;12.188;2023-12-29T01:25:49;3.00;99.90
34829;DHT22;21042;47.620;12.188;2023-12-29T01:28:15;2.90;99.90
34829;DHT22;21042;47.620;12.188;2023-12-29T01:30:42;2.80;99.90
34829;DHT22;21042;47.620;12.188;2023-12-29T01:33:09;2.80;99.90
34829;DHT22;21042;47.620;12.188;2023-12-29T01:35:36;2.90;99.90
34829;DHT22;21042;47.620;12.188;2023-12-29T01:38:03;2.80;99.90
34829;DHT22;21042;47.620;12.188;2023-12-29T01:40:30;2.70;99.90
34829;DHT22;21042;47.620;12.188;2023-12-29T01:42:57;2.50;99.90
34829;DHT22;21042;47.620;12.188;2023-12-29T01:45:24;2.40;99.90
34829;DHT22;21042;47.620;12.188;2023-12-29T01:47:53;2.40;99.90
34829;DHT22;21042;47.620;12.188;2023-12-29T01:50:20;2.40;99.90
34829;DHT22;21042;47.620;12.188;2023-12-29T01:52:49;2.40;99.90
34829;DHT22;21042;47.620;12.188;2023-12-29T01:55:19;2.40;99.90
34829;DHT22;21042;47.620;12.188;2023-12-29T01:57:48;2.30;99.90
34829;DHT22;21042;47.620;12.188;2023-12-29T02:00:17;2.30;99.90
34829;DHT22;21042;47.620;12.188;2023-12-29T02:02:46;2.20;99.90
34829;DHT22;21042;47.620;12.188;2023-12-29T02:05:14;2.10;99.90
34829;DHT22;21042;47.620;12.188;2023-12-29T02:07:43;2.10;99.90
34829;DHT22;21042;47.620;12.188;2023-12-29T02:10:11;2.10;99.90
34829;DHT22;21042;47.620;12.188;2023-12-29T02:12:42;2.00;99.90
34829;DHT22;21042;47.620;12.188;2023-12-29T02:15:09;2.00;99.90
34829;DHT22;21042;47.620;12.188;2023-12-29T02:17:40;2.00;99.90
34829;DHT22;21042;47.620;12.188;2023-12-29T02:20:09;1.90;99.90
34829;DHT22;21042;47.620;12.188;2023-12-29T02:22:36;2.00;99.90
34829;DHT22;21042;47.620;12.188;2023-12-29T02:25:04;1.90;99.90
34829;DHT22;21042;47.620;12.188;2023-12-29T02:28:15;2.00;99.90
34829;DHT22;21042;47.620;12.188;2023-12-29T02:31:16;2.00;99.90
34829;DHT22;21042;47.620;12.188;2023-12-29T02:33:45;2.00;99.90
34829;DHT22;21042;47.620;12.188;2023-12-29T02:36:16;2.00;99.90
34829;DHT22;21042;47.620;12.188;2023-12-29T02:38:44;1.90;99.90
34829;DHT22;21042;47.620;12.188;2023-12-29T02:41:11;1.90;99.90
34829;DHT22;21042;47.620;12.188;2023-12-29T02:43:40;1.90;99.90
34829;DHT22;21042;47.620;12.188;2023-12-29T02:46:07;1.90;99.90
34829;DHT22;21042;47.620;12.188;2023-12-29T02:48:33;2.00;99.90
34829;DHT22;21042;47.620;12.188;2023-12-29T02:51:01;1.90;99.90
34829;DHT22;21042;47.620;12.188;2023-12-29T02:53:27;1.90;99.90
34829;DHT22;21042;47.620;12.188;2023-12-29T02:55:54;1.80;99.90
34829;DHT22;21042;47.620;12.188;2023-12-29T02:58:21;1.70;99.90
34829;DHT22;21042;47.620;12.188;2023-12-29T03:00:48;1.70;99.90
34829;DHT22;21042;47.620;12.188;2023-12-29T03:03:15;1.70;99.90
34829;DHT22;21042;47.620;12.188;2023-12-29T03:05:42;1.80;99.90
34829;DHT22;21042;47.620;12.188;2023-12-29T03:08:09;1.80;99.90
34829;DHT22;21042;47.620;12.188;2023-12-29T03:10:36;1.90;99.90
34829;DHT22;21042;47.620;12.188;2023-12-29T03:13:02;1.90;99.90
34829;DHT22;21042;47.620;12.188;2023-12-29T03:15:30;1.90;99.90
34829;DHT22;21042;47.620;12.188;2023-12-29T03:17:57;2.00;99.90
34829;DHT22;21042;47.620;12.188;2023-12-29T03:20:25;2.10;99.90
34829;DHT22;21042;47.620;12.188;2023-12-29T03:22:54;2.10;99.90
34829;DHT22;21042;47.620;12.188;2023-12-29T03:25:22;2.20;99.90
34829;DHT22;21042;47.620;12.188;2023-12-29T03:27:49;2.20;99.90
34829;DHT22;21042;47.620;12.188;2023-12-29T03:30:16;2.20;99.90
34829;DHT22;21042;47.620;12.188;2023-12-29T03:32:43;2.20;99.90
34829;DHT22;21042;47.620;12.188;2023-12-29T03:35:10;2.30;99.90
34829;DHT22;21042;47.620;12.188;2023-12-29T03:37:37;2.30;99.90
34829;DHT22;21042;47.620;12.188;2023-12-29T03:40:05;2.30;99.90
34829;DHT22;21042;47.620;12.188;2023-12-29T03:42:32;2.40;99.90
34829;DHT22;21042;47.620;12.188;2023-12-29T03:45:00;2.40;99.90
34829;DHT22;21042;47.620;12.188;2023-12-29T03:47:27;2.50;99.90
34829;DHT22;21042;47.620;12.188;2023-12-29T03:49:54;2.60;99.90
34829;DHT22;21042;47.620;12.188;2023-12-29T03:52:22;2.70;99.90
34829;DHT22;21042;47.620;12.188;2023-12-29T03:54:49;2.80;99.90
34829;DHT22;21042;47.620;12.188;2023-12-29T03:57:15;3.00;99.90
34829;DHT22;21042;47.620;12.188;2023-12-29T03:59:42;3.10;99.90
34829;DHT22;21042;47.620;12.188;2023-12-29T04:02:09;3.10;99.90
34829;DHT22;21042;47.620;12.188;2023-12-29T04:04:38;3.30;99.90
34829;DHT22;21042;47.620;12.188;2023-12-29T04:07:06;3.30;99.90
34829;DHT22;21042;47.620;12.188;2023-12-29T04:09:33;3.20;99.90
34829;DHT22;21042;47.620;12.188;2023-12-29T04:12:00;3.00;99.90
34829;DHT22;21042;47.620;12.188;2023-12-29T04:14:26;2.90;99.90
34829;DHT22;21042;47.620;12.188;2023-12-29T04:16:53;2.80;99.90
34829;DHT22;21042;47.620;12.188;2023-12-29T04:19:20;2.70;99.90
34829;DHT22;21042;47.620;12.188;2023-12-29T04:21:47;2.60;99.90
34829;DHT22;21042;47.620;12.188;2023-12-29T04:24:14;2.60;99.90
34829;DHT22;21042;47.620;12.188;2023-12-29T04:26:41;2.60;99.90
34829;DHT22;21042;47.620;12.188;2023-12-29T04:29:08;2.60;99.90
34829;DHT22;21042;47.620;12.188;2023-12-29T04:31:35;2.60;99.90
34829;DHT22;21042;47.620;12.188;2023-12-29T04:34:02;2.70;99.90
34829;DHT22;21042;47.620;12.188;2023-12-29T04:36:28;2.80;99.90
34829;DHT22;21042;47.620;12.188;2023-12-29T04:38:55;2.80;99.90
34829;DHT22;21042;47.620;12.188;2023-12-29T04:41:22;2.90;99.90
34829;DHT22;21042;47.620;12.188;2023-12-29T04:43:49;2.90;99.90
34829;DHT22;21042;47.620;12.188;2023-12-29T04:46:16;3.00;99.90
34829;DHT22;21042;47.620;12.188;2023-12-29T04:48:42;3.00;99.90
34829;DHT22;21042;47.620;12.188;2023-12-29T04:51:09;3.00;99.90
34829;DHT22;21042;47.620;12.188;2023-12-29T04:53:36;3.00;99.90
34829;DHT22;21042;47.620;12.188;2023-12-29T04:56:03;3.10;99.90
34829;DHT22;21042;47.620;12.188;2023-12-29T04:58:30;3.10;99.90
34829;DHT22;21042;47.620;12.188;2023-12-29T05:00:57;3.10;99.90
34829;DHT22;21042;47.620;12.188;2023-12-29T05:03:24;3.10;99.90
34829;DHT22;21042;47.620;12.188;2023-12-29T05:05:50;3.10;99.90
34829;DHT22;21042;47.620;12.188;2023-12-29T05:08:17;3.20;99.90
34829;DHT22;21042;47.620;12.188;2023-12-29T05:10:44;3.20;99.90
34829;DHT22;21042;47.620;12.188;2023-12-29T05:13:11;3.20;99.90
34829;DHT22;21042;47.620;12.188;2023-12-29T05:15:38;3.20;99.90
34829;DHT22;21042;47.620;12.188;2023-12-29T05:18:05;3.30;99.90
34829;DHT22;21042;47.620;12.188;2023-12-29T05:20:33;3.30;99.90
34829;DHT22;21042;47.620;12.188;2023-12-29T05:23:00;3.30;99.90
34829;DHT22;21042;47.620;12.188;2023-12-29T05:25:26;3.40;99.90
34829;DHT22;21042;47.620;12.188;2023-12-29T05:27:53;3.40;99.90
34829;DHT22;21042;47.620;12.188;2023-12-29T05:30:20;3.40;99.90
34829;DHT22;21042;47.620;12.188;2023-12-29T05:32:47;3.30;99.90
34829;DHT22;21042;47.620;12.188;2023-12-29T05:35:14;3.30;99.90
34829;DHT22;21042;47.620;12.188;2023-12-29T05:37:41;3.30;99.90
34829;DHT22;21042;47.620;12.188;2023-12-29T05:40:08;3.30;99.90
34829;DHT22;21042;47.620;12.188;2023-12-29T05:42:34;3.30;99.90
34829;DHT22;21042;47.620;12.188;2023-12-29T05:45:01;3.20;99.90
34829;DHT22;21042;47.620;12.188;2023-12-29T05:47:29;3.20;99.90
34829;DHT22;21042;47.620;12.188;2023-12-29T05:49:56;3.20;99.90
34829;DHT22;21042;47.620;12.188;2023-12-29T05:52:23;3.10;99.90
34829;DHT22;21042;47.620;12.188;2023-12-29T05:54:49;3.00;99.90
34829;DHT22;21042;47.620;12.188;2023-12-29T05:57:16;2.80;99.90
34829;DHT22;21042;47.620;12.188;2023-12-29T05:59:43;2.70;99.90
34829;DHT22;21042;47.620;12.188;2023-12-29T06:02:10;2.60;99.90
34829;DHT22;21042;47.620;12.188;2023-12-29T06:04:37;2.50;99.90
34829;DHT22;21042;47.620;12.188;2023-12-29T06:07:03;2.40;99.90
34829;DHT22;21042;47.620;12.188;2023-12-29T06:09:30;2.40;99.90
34829;DHT22;21042;47.620;12.188;2023-12-29T06:11:57;2.50;99.90
34829;DHT22;21042;47.620;12.188;2023-12-29T06:14:24;2.50;99.90
34829;DHT22;21042;47.620;12.188;2023-12-29T06:16:52;2.50;99.90
34829;DHT22;21042;47.620;12.188;2023-12-29T06:19:19;2.60;99.90
34829;DHT22;21042;47.620;12.188;2023-12-29T06:21:46;2.60;99.90
34829;DHT22;21042;47.620;12.188;2023-12-29T06:24:13;2.60;99.90
34829;DHT22;21042;47.620;12.188;2023-12-29T06:26:41;2.60;99.90
34829;DHT22;21042;47.620;12.188;2023-12-29T06:29:10;2.60;99.90
34829;DHT22;21042;47.620;12.188;2023-12-29T06:31:40;2.60;99.90
34829;DHT22;21042;47.620;12.188;2023-12-29T06:34:08;2.60;99.90
34829;DHT22;21042;47.620;12.188;2023-12-29T06:36:35;2.50;99.90
34829;DHT22;21042;47.620;12.188;2023-12-29T06:39:02;2.60;99.90
34829;DHT22;21042;47.620;12.188;2023-12-29T06:41:29;2.60;99.90
34829;DHT22;21042;47.620;12.188;2023-12-29T06:43:55;2.60;99.90
34829;DHT22;21042;47.620;12.188;2023-12-29T06:46:22;2.60;99.90
34829;DHT22;21042;47.620;12.188;2023-12-29T06:48:49;2.60;99.90
34829;DHT22;21042;47.620;12.188;2023-12-29T06:51:17;2.60;99.90
34829;DHT22;21042;47.620;12.188;2023-12-29T06:53:45;2.60;99.90
34829;DHT22;21042;47.620;12.188;2023-12-29T06:56:14;2.60;99.90
34829;DHT22;21042;47.620;12.188;2023-12-29T06:58:41;2.60;99.90
34829;DHT22;21042;47.620;12.188;2023-12-29T07:01:08;2.60;99.90
34829;DHT22;21042;47.620;12.188;2023-12-29T07:03:35;2.50;99.90
34829;DHT22;21042;47.620;12.188;2023-12-29T07:06:02;2.50;99.90
34829;DHT22;21042;47.620;12.188;2023-12-29T07:08:29;2.40;99.90
34829;DHT22;21042;47.620;12.188;2023-12-29T07:10:56;2.40;99.90
34829;DHT22;21042;47.620;12.188;2023-12-29T07:13:23;2.40;99.90
34829;DHT22;21042;47.620;12.188;2023-12-29T07:15:50;2.50;99.90
34829;DHT22;21042;47.620;12.188;2023-12-29T07:18:17;2.50;99.90
34829;DHT22;21042;47.620;12.188;2023-12-29T07:20:43;2.60;99.90
34829;DHT22;21042;47.620;12.188;2023-12-29T07:23:10;2.60;99.90
34829;DHT22;21042;47.620;12.188;2023-12-29T07:25:37;2.60;99.90
34829;DHT22;21042;47.620;12.188;2023-12-29T07:28:04;2.60;99.90
34829;DHT22;21042;47.620;12.188;2023-12-29T07:30:31;2.70;99.90
34829;DHT22;21042;47.620;12.188;2023-12-29T07:32:58;2.70;99.90
34829;DHT22;21042;47.620;12.188;2023-12-29T07:35:25;2.80;99.90
34829;DHT22;21042;47.620;12.188;2023-12-29T07:37:52;2.90;99.90
34829;DHT22;21042;47.620;12.188;2023-12-29T07:40:19;2.90;99.90
34829;DHT22;21042;47.620;12.188;2023-12-29T07:42:45;3.00;99.90
34829;DHT22;21042;47.620;12.188;2023-12-29T07:45:15;3.10;99.90
34829;DHT22;21042;47.620;12.188;2023-12-29T07:47:43;3.20;99.90
34829;DHT22;21042;47.620;12.188;2023-12-29T07:50:10;3.30;99.90
34829;DHT22;21042;47.620;12.188;2023-12-29T07:52:36;3.40;99.90
34829;DHT22;21042;47.620;12.188;2023-12-29T07:55:03;3.40;99.90
34829;DHT22;21042;47.620;12.188;2023-12-29T07:57:30;3.40;99.90
34829;DHT22;21042;47.620;12.188;2023-12-29T07:59:57;3.40;99.90
34829;DHT22;21042;47.620;12.188;2023-12-29T08:02:24;3.50;99.90
34829;DHT22;21042;47.620;12.188;2023-12-29T08:04:51;3.40;99.90
34829;DHT22;21042;47.620;12.188;2023-12-29T08:07:18;3.40;99.90
34829;DHT22;21042;47.620;12.188;2023-12-29T08:09:45;3.50;99.90
34829;DHT22;21042;47.620;12.188;2023-12-29T08:12:12;3.60;99.90
34829;DHT22;21042;47.620;12.188;2023-12-29T08:14:38;3.70;99.90
34829;DHT22;21042;47.620;12.188;2023-12-29T08:17:05;3.80;99.90
34829;DHT22;21042;47.620;12.188;2023-12-29T08:19:33;3.80;99.90
34829;DHT22;21042;47.620;12.188;2023-12-29T08:22:00;3.80;99.90
34829;DHT22;21042;47.620;12.188;2023-12-29T08:24:27;3.90;99.90
34829;DHT22;21042;47.620;12.188;2023-12-29T08:26:54;3.90;99.90
34829;DHT22;21042;47.620;12.188;2023-12-29T08:29:20;3.90;99.90
34829;DHT22;21042;47.620;12.188;2023-12-29T08:31:47;3.90;99.90
34829;DHT22;21042;47.620;12.188;2023-12-29T08:34:14;3.90;99.90
34829;DHT22;21042;47.620;12.188;2023-12-29T08:36:42;3.90;99.90
34829;DHT22;21042;47.620;12.188;2023-12-29T08:39:09;4.00;99.90
34829;DHT22;21042;47.620;12.188;2023-12-29T08:41:36;4.10;99.90
34829;DHT22;21042;47.620;12.188;2023-12-29T08:44:03;4.20;99.90
34829;DHT22;21042;47.620;12.188;2023-12-29T08:46:30;4.20;99.90
34829;DHT22;21042;47.620;12.188;2023-12-29T08:48:57;4.30;99.90
34829;DHT22;21042;47.620;12.188;2023-12-29T08:51:24;4.20;99.90
34829;DHT22;21042;47.620;12.188;2023-12-29T08:53:51;4.30;99.90
34829;DHT22;21042;47.620;12.188;2023-12-29T08:56:17;4.40;99.90
34829;DHT22;21042;47.620;12.188;2023-12-29T08:58:44;4.50;99.90
34829;DHT22;21042;47.620;12.188;2023-12-29T09:01:11;4.70;99.90
34829;DHT22;21042;47.620;12.188;2023-12-29T09:03:38;4.90;99.90
34829;DHT22;21042;47.620;12.188;2023-12-29T09:06:05;5.00;99.90
34829;DHT22;21042;47.620;12.188;2023-12-29T09:08:32;5.20;99.90
34829;DHT22;21042;47.620;12.188;2023-12-29T09:10:59;5.40;99.90
34829;DHT22;21042;47.620;12.188;2023-12-29T09:13:26;5.40;99.90
34829;DHT22;21042;47.620;12.188;2023-12-29T09:15:54;5.30;99.90
34829;DHT22;21042;47.620;12.188;2023-12-29T09:18:22;5.40;99.90
34829;DHT22;21042;47.620;12.188;2023-12-29T09:20:49;5.30;99.90
34829;DHT22;21042;47.620;12.188;2023-12-29T09:23:16;5.20;99.90
34829;DHT22;21042;47.620;12.188;2023-12-29T09:25:43;5.20;99.90
34829;DHT22;21042;47.620;12.188;2023-12-29T09:28:10;5.20;99.90
34829;DHT22;21042;47.620;12.188;2023-12-29T09:30:37;5.30;99.90
34829;DHT22;21042;47.620;12.188;2023-12-29T09:33:04;5.50;99.90
34829;DHT22;21042;47.620;12.188;2023-12-29T09:35:31;5.60;99.90
34829;DHT22;21042;47.620;12.188;2023-12-29T09:38:01;5.80;99.90
34829;DHT22;21042;47.620;12.188;2023-12-29T09:40:28;5.90;99.90
34829;DHT22;21042;47.620;12.188;2023-12-29T09:42:55;6.10;99.90
34829;DHT22;21042;47.620;12.188;2023-12-29T09:45:24;6.20;99.90
34829;DHT22;21042;47.620;12.188;2023-12-29T09:47:52;6.30;99.90
34829;DHT22;21042;47.620;12.188;2023-12-29T09:50:21;6.40;99.90
34829;DHT22;21042;47.620;12.188;2023-12-29T09:52:48;6.50;99.90
34829;DHT22;21042;47.620;12.188;2023-12-29T09:55:19;6.60;99.90
34829;DHT22;21042;47.620;12.188;2023-12-29T09:57:47;6.60;99.90
34829;DHT22;21042;47.620;12.188;2023-12-29T10:00:16;6.50;99.90
34829;DHT22;21042;47.620;12.188;2023-12-29T10:02:43;6.50;99.90
34829;DHT22;21042;47.620;12.188;2023-12-29T10:05:10;6.60;99.90
34829;DHT22;21042;47.620;12.188;2023-12-29T10:07:39;6.50;99.90
34829;DHT22;21042;47.620;12.188;2023-12-29T10:10:06;6.50;99.90
34829;DHT22;21042;47.620;12.188;2023-12-29T10:12:35;6.60;99.90
34829;DHT22;21042;47.620;12.188;2023-12-29T10:15:12;6.80;99.90
34829;DHT22;21042;47.620;12.188;2023-12-29T10:18:00;6.80;99.90
34829;DHT22;21042;47.620;12.188;2023-12-29T10:20:48;6.90;99.90
34829;DHT22;21042;47.620;12.188;2023-12-29T10:23:23;7.00;99.90
34829;DHT22;21042;47.620;12.188;2023-12-29T10:25:52;7.10;99.90
34829;DHT22;21042;47.620;12.188;2023-12-29T10:28:19;7.00;99.90
34829;DHT22;21042;47.620;12.188;2023-12-29T10:30:47;7.10;99.90
34829;DHT22;21042;47.620;12.188;2023-12-29T10:33:19;7.20;99.90
34829;DHT22;21042;47.620;12.188;2023-12-29T10:36:04;7.40;99.90
34829;DHT22;21042;47.620;12.188;2023-12-29T10:38:34;7.50;99.90
34829;DHT22;21042;47.620;12.188;2023-12-29T10:41:13;7.50;99.90
34829;DHT22;21042;47.620;12.188;2023-12-29T10:43:41;7.40;99.90
34829;DHT22;21042;47.620;12.188;2023-12-29T10:46:11;7.40;99.90
34829;DHT22;21042;47.620;12.188;2023-12-29T10:48:38;7.30;99.90
34829;DHT22;21042;47.620;12.188;2023-12-29T10:51:06;7.30;99.90
34829;DHT22;21042;47.620;12.188;2023-12-29T10:53:34;7.30;99.90
34829;DHT22;21042;47.620;12.188;2023-12-29T10:56:17;7.30;99.90
34829;DHT22;21042;47.620;12.188;2023-12-29T10:59:00;7.30;99.90
34829;DHT22;21042;47.620;12.188;2023-12-29T11:01:27;7.20;99.90
34829;DHT22;21042;47.620;12.188;2023-12-29T11:03:58;7.40;99.90
34829;DHT22;21042;47.620;12.188;2023-12-29T11:06:27;7.50;99.90
34829;DHT22;21042;47.620;12.188;2023-12-29T11:08:55;7.70;99.90
34829;DHT22;21042;47.620;12.188;2023-12-29T11:11:23;7.90;99.90
34829;DHT22;21042;47.620;12.188;2023-12-29T11:13:50;7.90;99.90
34829;DHT22;21042;47.620;12.188;2023-12-29T11:16:17;7.80;99.90
34829;DHT22;21042;47.620;12.188;2023-12-29T11:18:49;7.90;99.90
34829;DHT22;21042;47.620;12.188;2023-12-29T11:21:19;7.90;99.90
34829;DHT22;21042;47.620;12.188;2023-12-29T11:23:48;8.00;99.90
34829;DHT22;21042;47.620;12.188;2023-12-29T11:26:15;8.10;99.90
34829;DHT22;21042;47.620;12.188;2023-12-29T11:28:45;8.20;99.90
34829;DHT22;21042;47.620;12.188;2023-12-29T11:31:12;8.20;99.90
34829;DHT22;21042;47.620;12.188;2023-12-29T11:33:43;8.20;99.90
34829;DHT22;21042;47.620;12.188;2023-12-29T11:36:20;8.30;99.90
34829;DHT22;21042;47.620;12.188;2023-12-29T11:39:07;8.10;99.90
34829;DHT22;21042;47.620;12.188;2023-12-29T11:44:25;8.20;99.90
34829;DHT22;21042;47.620;12.188;2023-12-29T11:46:56;8.20;99.90
34829;DHT22;21042;47.620;12.188;2023-12-29T11:49:26;8.20;99.90
34829;DHT22;21042;47.620;12.188;2023-12-29T11:51:53;8.30;99.90
34829;DHT22;21042;47.620;12.188;2023-12-29T11:54:24;8.40;99.90
34829;DHT22;21042;47.620;12.188;2023-12-29T11:56:52;8.60;99.90
34829;DHT22;21042;47.620;12.188;2023-12-29T11:59:23;8.60;99.90
34829;DHT22;21042;47.620;12.188;2023-12-29T12:01:55;8.60;99.90
34829;DHT22;21042;47.620;12.188;2023-12-29T12:04:40;8.60;99.90
34829;DHT22;21042;47.620;12.188;2023-12-29T12:12:47;8.70;99.90
34829;DHT22;21042;47.620;12.188;2023-12-29T12:17:56;8.90;99.90
34829;DHT22;21042;47.620;12.188;2023-12-29T12:20:23;9.00;99.90
34829;DHT22;21042;47.620;12.188;2023-12-29T12:23:01;9.00;99.90
34829;DHT22;21042;47.620;12.188;2023-12-29T12:25:30;9.00;99.90
34829;DHT22;21042;47.620;12.188;2023-12-29T12:28:05;9.10;99.90
34829;DHT22;21042;47.620;12.188;2023-12-29T12:30:35;9.10;99.90
34829;DHT22;21042;47.620;12.188;2023-12-29T12:33:03;9.10;99.90
34829;DHT22;21042;47.620;12.188;2023-12-29T12:35:32;9.00;99.90
34829;DHT22;21042;47.620;12.188;2023-12-29T12:40:36;9.10;99.90
34829;DHT22;21042;47.620;12.188;2023-12-29T12:43:04;9.00;99.90
34829;DHT22;21042;47.620;12.188;2023-12-29T12:45:42;9.10;99.90
34829;DHT22;21042;47.620;12.188;2023-12-29T12:48:27;9.20;99.90
34829;DHT22;21042;47.620;12.188;2023-12-29T12:50:55;9.30;99.90
34829;DHT22;21042;47.620;12.188;2023-12-29T12:53:26;9.30;99.90
34829;DHT22;21042;47.620;12.188;2023-12-29T12:55:54;9.10;99.90
34829;DHT22;21042;47.620;12.188;2023-12-29T12:58:21;9.10;99.90
34829;DHT22;21042;47.620;12.188;2023-12-29T13:00:48;9.00;99.90
34829;DHT22;21042;47.620;12.188;2023-12-29T13:03:19;9.00;99.90
34829;DHT22;21042;47.620;12.188;2023-12-29T13:05:46;8.90;99.90
34829;DHT22;21042;47.620;12.188;2023-12-29T13:08:13;8.90;99.90
34829;DHT22;21042;47.620;12.188;2023-12-29T13:10:49;8.90;99.90
34829;DHT22;21042;47.620;12.188;2023-12-29T13:13:16;8.80;99.90
34829;DHT22;21042;47.620;12.188;2023-12-29T13:15:49;8.80;99.90
34829;DHT22;21042;47.620;12.188;2023-12-29T13:18:17;8.70;99.90
34829;DHT22;21042;47.620;12.188;2023-12-29T13:20:46;8.70;99.90
34829;DHT22;21042;47.620;12.188;2023-12-29T13:23:14;8.70;99.90
34829;DHT22;21042;47.620;12.188;2023-12-29T13:25:43;8.70;99.90
34829;DHT22;21042;47.620;12.188;2023-12-29T13:28:10;8.70;99.90
34829;DHT22;21042;47.620;12.188;2023-12-29T13:30:37;8.80;99.90
34829;DHT22;21042;47.620;12.188;2023-12-29T13:36:18;8.80;99.90
34829;DHT22;21042;47.620;12.188;2023-12-29T13:38:55;8.80;99.90
34829;DHT22;21042;47.620;12.188;2023-12-29T13:41:24;8.80;99.90
34829;DHT22;21042;47.620;12.188;2023-12-29T13:43:53;8.70;99.90
34829;DHT22;21042;47.620;12.188;2023-12-29T13:46:20;8.70;99.90
34829;DHT22;21042;47.620;12.188;2023-12-29T13:48:47;8.60;99.90
34829;DHT22;21042;47.620;12.188;2023-12-29T13:51:25;8.60;99.90
34829;DHT22;21042;47.620;12.188;2023-12-29T13:54:01;8.60;99.90
34829;DHT22;21042;47.620;12.188;2023-12-29T13:56:29;8.60;99.90
34829;DHT22;21042;47.620;12.188;2023-12-29T13:58:56;8.60;99.90
34829;DHT22;21042;47.620;12.188;2023-12-29T14:01:22;8.60;99.90
34829;DHT22;21042;47.620;12.188;2023-12-29T14:03:59;8.60;99.90
34829;DHT22;21042;47.620;12.188;2023-12-29T14:06:32;8.60;99.90
34829;DHT22;21042;47.620;12.188;2023-12-29T14:09:03;8.60;99.90
34829;DHT22;21042;47.620;12.188;2023-12-29T14:11:30;8.50;99.90
34829;DHT22;21042;47.620;12.188;2023-12-29T14:13:59;8.50;99.90
34829;DHT22;21042;47.620;12.188;2023-12-29T14:16:26;8.50;99.90
34829;DHT22;21042;47.620;12.188;2023-12-29T14:18:54;8.40;99.90
34829;DHT22;21042;47.620;12.188;2023-12-29T14:21:28;8.50;99.90
34829;DHT22;21042;47.620;12.188;2023-12-29T14:24:09;8.40;99.90
34829;DHT22;21042;47.620;12.188;2023-12-29T14:26:37;8.40;99.90
34829;DHT22;21042;47.620;12.188;2023-12-29T14:29:09;8.30;99.90
34829;DHT22;21042;47.620;12.188;2023-12-29T14:31:37;8.20;99.90
34829;DHT22;21042;47.620;12.188;2023-12-29T14:34:05;8.10;99.90
34829;DHT22;21042;47.620;12.188;2023-12-29T14:36:33;8.20;99.90
34829;DHT22;21042;47.620;12.188;2023-12-29T14:39:00;8.10;99.90
34829;DHT22;21042;47.620;12.188;2023-12-29T14:41:27;8.00;99.90
34829;DHT22;21042;47.620;12.188;2023-12-29T14:43:54;8.00;99.90
34829;DHT22;21042;47.620;12.188;2023-12-29T14:46:21;8.00;99.90
34829;DHT22;21042;47.620;12.188;2023-12-29T14:48:50;7.90;99.90
34829;DHT22;21042;47.620;12.188;2023-12-29T14:51:18;7.80;99.90
34829;DHT22;21042;47.620;12.188;2023-12-29T14:53:46;7.70;99.90
34829;DHT22;21042;47.620;12.188;2023-12-29T14:56:15;7.60;99.90
34829;DHT22;21042;47.620;12.188;2023-12-29T14:58:42;7.50;99.90
34829;DHT22;21042;47.620;12.188;2023-12-29T15:01:09;7.30;99.90
34829;DHT22;21042;47.620;12.188;2023-12-29T15:03:36;7.30;99.90
34829;DHT22;21042;47.620;12.188;2023-12-29T15:06:04;7.20;99.90
34829;DHT22;21042;47.620;12.188;2023-12-29T15:08:31;7.10;99.90
34829;DHT22;21042;47.620;12.188;2023-12-29T15:11:05;7.10;99.90
34829;DHT22;21042;47.620;12.188;2023-12-29T15:13:33;7.00;99.90
34829;DHT22;21042;47.620;12.188;2023-12-29T15:16:02;6.90;99.90
34829;DHT22;21042;47.620;12.188;2023-12-29T15:18:30;6.90;99.90
34829;DHT22;21042;47.620;12.188;2023-12-29T15:20:58;6.80;99.90
34829;DHT22;21042;47.620;12.188;2023-12-29T15:23:25;6.70;99.90
34829;DHT22;21042;47.620;12.188;2023-12-29T15:25:54;6.60;99.90
34829;DHT22;21042;47.620;12.188;2023-12-29T15:28:21;6.50;99.90
34829;DHT22;21042;47.620;12.188;2023-12-29T15:30:49;6.50;99.90
34829;DHT22;21042;47.620;12.188;2023-12-29T15:33:17;6.40;99.90
34829;DHT22;21042;47.620;12.188;2023-12-29T15:35:44;6.40;99.90
34829;DHT22;21042;47.620;12.188;2023-12-29T15:38:10;6.40;99.90
34829;DHT22;21042;47.620;12.188;2023-12-29T15:40:37;6.40;99.90
34829;DHT22;21042;47.620;12.188;2023-12-29T15:43:04;6.30;99.90
34829;DHT22;21042;47.620;12.188;2023-12-29T15:45:31;6.20;99.90
34829;DHT22;21042;47.620;12.188;2023-12-29T15:47:58;6.20;99.90
34829;DHT22;21042;47.620;12.188;2023-12-29T15:50:26;6.10;99.90
34829;DHT22;21042;47.620;12.188;2023-12-29T15:52:53;6.10;99.90
34829;DHT22;21042;47.620;12.188;2023-12-29T15:55:20;6.00;99.90